createdAt,value
2024-02-16T00:02:12.939Z,79.73
2024-02-16T00:07:35.219Z,78.42
2024-02-16T00:18:54.652Z,77.93
2024-02-16T00:24:16.568Z,78.34
2024-02-16T00:29:38.339Z,78.87
2024-02-16T00:35:00.192Z,78.34
2024-02-16T00:40:22.025Z,78.10
2024-02-16T00:45:43.816Z,78.62
2024-02-16T00:51:05.769Z,77.88
2024-02-16T00:56:27.566Z,78.14
2024-02-16T01:01:49.306Z,79.01
2024-02-16T01:07:11.140Z,78.21
2024-02-16T01:12:44.676Z,77.41
2024-02-16T01:18:06.542Z,79.25
2024-02-16T01:23:46.631Z,78.81
2024-02-16T01:29:08.402Z,79.66
2024-02-16T01:34:30.254Z,79.29
2024-02-16T01:39:52.115Z,79.78
2024-02-16T01:45:14.489Z,79.38
2024-02-16T01:50:38.175Z,80.26
2024-02-16T01:56:00.470Z,80.21
2024-02-16T02:01:22.284Z,79.90
2024-02-16T02:06:44.259Z,81.76
2024-02-16T02:12:06.374Z,80.17
2024-02-16T02:17:28.328Z,81.21
2024-02-16T02:22:50.140Z,79.94
2024-02-16T02:28:11.889Z,81.25
2024-02-16T02:33:33.844Z,81.18
2024-02-16T02:38:55.740Z,80.54
2024-02-16T02:44:17.527Z,80.93
2024-02-16T02:49:39.380Z,80.74
2024-02-16T02:55:01.187Z,80.64
2024-02-16T03:00:23.064Z,81.05
2024-02-16T03:05:44.920Z,80.92
2024-02-16T03:11:06.706Z,80.63
2024-02-16T03:16:28.464Z,80.14
2024-02-16T03:21:50.416Z,81.80
2024-02-16T03:27:13.181Z,81.72
2024-02-16T03:32:35.184Z,81.21
2024-02-16T03:37:57.025Z,81.07
2024-02-16T03:43:18.802Z,80.89
2024-02-16T03:48:40.689Z,80.21
2024-02-16T03:54:02.588Z,79.50
2024-02-16T03:59:25.262Z,79.90
2024-02-16T04:04:47.074Z,79.42
2024-02-16T04:10:09.236Z,78.93
2024-02-16T04:15:31.146Z,79.78
2024-02-16T04:20:53.061Z,79.93
2024-02-16T04:26:14.853Z,79.23
2024-02-16T04:31:36.619Z,79.29
2024-02-16T04:36:58.412Z,78.67
2024-02-16T04:42:20.200Z,79.31
2024-02-16T04:47:42.016Z,79.17
2024-02-16T04:53:04.022Z,79.14
2024-02-16T04:58:25.838Z,78.92
2024-02-16T05:03:47.631Z,78.67
2024-02-16T05:09:09.820Z,79.39
2024-02-16T05:14:31.626Z,78.68
2024-02-16T05:19:53.492Z,79.70
2024-02-16T05:25:16.043Z,79.13
2024-02-16T05:30:37.858Z,80.07
2024-02-16T05:35:59.611Z,80.53
2024-02-16T05:41:21.713Z,79.41
2024-02-16T05:46:45.804Z,79.92
2024-02-16T05:52:07.586Z,79.31
2024-02-16T05:57:29.389Z,79.97
2024-02-16T06:02:51.247Z,79.25
2024-02-16T06:08:14.002Z,78.73
2024-02-16T06:13:35.744Z,78.44
2024-02-16T06:18:57.551Z,78.51
2024-02-16T06:24:19.408Z,77.71
2024-02-16T06:29:41.376Z,77.42
2024-02-16T06:35:03.316Z,77.04
2024-02-16T06:40:25.077Z,76.45
2024-02-16T06:45:46.884Z,75.96
2024-02-16T06:51:11.380Z,74.29
2024-02-16T06:56:33.442Z,73.78
2024-02-16T07:01:55.201Z,73.01
2024-02-16T07:07:17.181Z,73.53
2024-02-16T07:12:39.100Z,71.62
2024-02-16T07:18:01.072Z,71.00
2024-02-16T07:23:24.069Z,62.58
2024-02-16T07:28:46.144Z,46.63
2024-02-16T07:34:08.015Z,38.91
2024-02-16T07:39:29.948Z,34.14
2024-02-16T07:44:54.380Z,29.71
2024-02-16T07:50:22.219Z,26.23
2024-02-16T07:55:43.974Z,27.13
2024-02-16T08:01:05.792Z,24.98
2024-02-16T08:06:27.939Z,23.94
2024-02-16T08:11:49.896Z,23.24
2024-02-16T08:17:19.021Z,23.12
2024-02-16T08:22:41.826Z,23.58
2024-02-16T08:28:03.765Z,35.72
2024-02-16T08:33:25.734Z,41.31
2024-02-16T08:38:47.687Z,43.00
2024-02-16T08:44:09.475Z,45.47
2024-02-16T08:49:31.291Z,46.80
2024-02-16T08:54:53.205Z,47.62
2024-02-16T09:00:15.514Z,48.58
2024-02-16T09:05:37.314Z,47.64
2024-02-16T09:10:59.164Z,49.64
2024-02-16T09:16:23.582Z,48.82
2024-02-16T09:21:47.029Z,49.02
2024-02-16T09:27:08.838Z,48.85
2024-02-16T09:32:30.625Z,48.00
2024-02-16T09:37:52.486Z,49.95
2024-02-16T09:43:32.000Z,49.52
2024-02-16T09:48:55.557Z,49.61
2024-02-16T09:54:17.576Z,50.32
2024-02-16T09:59:57.808Z,50.24
2024-02-16T10:05:22.929Z,49.58
2024-02-16T10:10:44.934Z,48.61
2024-02-16T10:16:11.060Z,48.32
2024-02-16T10:21:33.652Z,42.28
2024-02-16T10:26:55.933Z,31.96
2024-02-16T10:32:18.146Z,25.19
2024-02-16T10:37:39.890Z,22.48
2024-02-16T10:43:07.988Z,22.57
2024-02-16T10:48:29.804Z,20.99
2024-02-16T10:53:54.839Z,19.87
2024-02-16T10:59:17.480Z,20.14
2024-02-16T11:04:40.598Z,20.31
2024-02-16T11:10:02.977Z,20.13
2024-02-16T11:15:35.037Z,20.15
2024-02-16T11:21:00.883Z,21.09
2024-02-16T11:26:23.830Z,20.36
2024-02-16T11:31:46.938Z,20.84
2024-02-16T11:37:08.670Z,20.31
2024-02-16T11:42:30.454Z,22.14
2024-02-16T11:47:52.376Z,21.52
2024-02-16T11:53:18.626Z,24.55
2024-02-16T11:58:40.416Z,25.67
2024-02-16T12:04:02.164Z,27.00
2024-02-16T12:09:24.485Z,29.87
2024-02-16T12:14:46.264Z,36.21
2024-02-16T12:20:17.352Z,38.80
2024-02-16T12:25:39.352Z,39.55
2024-02-16T12:31:04.090Z,41.87
2024-02-16T12:36:26.376Z,42.61
2024-02-16T12:41:48.360Z,42.82
2024-02-16T12:47:10.914Z,43.56
2024-02-16T12:52:32.688Z,45.49
2024-02-16T12:57:54.600Z,45.71
2024-02-16T13:03:16.483Z,45.37
2024-02-16T13:08:38.409Z,42.28
2024-02-16T13:14:00.355Z,46.00
2024-02-16T13:19:22.299Z,44.64
2024-02-16T13:24:44.170Z,46.16
2024-02-16T13:30:06.800Z,47.37
2024-02-16T13:35:28.633Z,48.12
2024-02-16T13:40:50.751Z,48.81
2024-02-16T13:46:12.600Z,41.14
2024-02-16T13:51:34.475Z,38.00
2024-02-16T14:13:54.540Z,48.24
2024-02-16T14:19:16.448Z,48.34
2024-02-16T14:24:38.349Z,48.64
2024-02-16T14:30:00.529Z,49.20
2024-02-16T14:35:22.356Z,49.19
2024-02-16T14:40:44.207Z,48.99
2024-02-16T14:46:06.117Z,49.42
2024-02-16T14:51:33.971Z,50.30
2024-02-16T14:57:13.936Z,49.72
2024-02-16T15:08:26.887Z,50.51
2024-02-16T15:13:57.853Z,51.55
2024-02-16T15:19:38.014Z,51.49
2024-02-16T15:25:02.873Z,51.93
2024-02-16T15:30:24.693Z,51.55
2024-02-16T15:35:46.489Z,52.59
2024-02-16T15:41:08.307Z,53.49
2024-02-16T15:46:30.140Z,53.58
2024-02-16T15:51:51.996Z,53.51
2024-02-16T15:57:13.796Z,53.81
2024-02-16T16:02:35.589Z,54.66
2024-02-16T16:07:57.339Z,54.67
2024-02-16T16:13:19.948Z,54.86
2024-02-16T16:18:41.695Z,55.31
2024-02-16T16:24:03.815Z,55.63
2024-02-16T16:29:25.620Z,55.03
2024-02-16T16:34:47.460Z,55.37
2024-02-16T16:40:09.840Z,56.56
2024-02-16T16:45:32.149Z,57.27
2024-02-16T16:50:53.940Z,57.02
2024-02-16T16:56:15.724Z,57.22
2024-02-16T17:01:37.463Z,57.92
2024-02-16T17:07:02.407Z,58.84
2024-02-16T17:12:27.450Z,58.13
2024-02-16T17:17:49.302Z,58.38
2024-02-16T17:23:11.110Z,59.45
2024-02-16T17:28:32.818Z,58.75
2024-02-16T17:33:54.650Z,60.10
2024-02-16T17:39:17.169Z,60.75
2024-02-16T17:44:38.888Z,59.86
2024-02-16T17:50:00.752Z,60.75
2024-02-16T17:55:41.032Z,62.25
2024-02-16T18:01:03.475Z,62.00
2024-02-16T18:06:25.312Z,62.37
2024-02-16T18:11:47.115Z,62.14
2024-02-16T18:17:09.544Z,62.84
2024-02-16T18:22:31.304Z,63.58
2024-02-16T18:27:59.446Z,63.47
2024-02-16T18:33:21.329Z,64.99
2024-02-16T18:38:43.158Z,64.89
2024-02-16T18:44:05.089Z,64.55
2024-02-16T18:49:26.857Z,65.26
2024-02-16T18:54:48.743Z,65.70
2024-02-16T19:00:11.120Z,67.42
2024-02-16T19:05:32.872Z,66.49
2024-02-16T19:10:54.700Z,66.58
2024-02-16T19:16:16.526Z,66.87
2024-02-16T19:21:38.316Z,66.45
2024-02-16T19:27:00.185Z,68.53
2024-02-16T19:32:21.953Z,67.40
2024-02-16T19:37:43.735Z,69.10
2024-02-16T19:43:05.484Z,67.62
2024-02-16T19:48:27.502Z,68.65
2024-02-16T19:53:49.628Z,70.23
2024-02-16T19:59:11.337Z,69.54
2024-02-16T20:04:33.129Z,69.93
2024-02-16T20:21:23.295Z,71.70
2024-02-16T20:26:45.270Z,70.31
2024-02-16T20:49:05.658Z,72.06
2024-02-16T20:54:27.663Z,72.13
2024-02-16T20:59:49.569Z,73.11
2024-02-16T21:05:11.320Z,73.45
2024-02-16T21:10:33.150Z,74.17
2024-02-16T21:15:54.951Z,74.95
2024-02-16T21:21:16.803Z,73.77
2024-02-16T21:26:38.621Z,74.77
2024-02-16T21:32:00.399Z,74.73
2024-02-16T21:37:22.192Z,75.51
2024-02-16T21:42:43.970Z,76.02
2024-02-16T21:48:06.193Z,75.44
2024-02-16T21:53:28.029Z,76.80
2024-02-16T21:58:50.203Z,77.15
2024-02-16T22:04:12.170Z,76.13
2024-02-16T22:09:34.030Z,76.82
2024-02-16T22:14:55.888Z,78.48
2024-02-16T22:20:17.793Z,78.21
2024-02-16T22:25:39.513Z,77.88
2024-02-16T22:31:01.677Z,78.19
2024-02-16T22:42:08.950Z,78.86
2024-02-16T22:47:31.473Z,79.84
2024-02-16T22:52:53.312Z,79.54
2024-02-16T22:58:17.692Z,79.48
2024-02-16T23:03:39.474Z,81.00
2024-02-16T23:14:40.471Z,81.63
2024-02-16T23:20:05.149Z,81.87
2024-02-16T23:25:30.914Z,80.57
2024-02-16T23:30:55.560Z,82.04
2024-02-16T23:36:32.465Z,83.40
2024-02-16T23:42:12.291Z,82.36
2024-02-16T23:47:36.909Z,81.61
2024-02-16T23:53:01.947Z,81.62
2024-02-16T23:58:23.669Z,82.41
